BUCHANAN DAM (BUC)

Elevation: 450' · CHOWCHILLA R basin · Operator: US Army Corps of Engineers

Provisional data, subject to change.
Query executed Wednesday at 22:57:15   clock

Select a sensor type for a plot of data.
Note: Reservoir Flows are daily averages.

Earlier

Date RES ELE    STORAGE    RES CHG    TOC STO    ABV TOC    OUTFLOW    INFLOW    PPT INC    TEMP MN    TEMP MX   
 FEET   AF   AF   AF   AF   CFS   CFS   INCHES   DEG F   DEG F  
11/18/2014 469.05 11687 -10 110934 -99247 0 -4 -- 5 21
11/19/2014 469.04 11681 -6 110440 -98759 0 -2 -- 9 20
11/20/2014 469.05 11687 6 109945 -98258 0 4 -- 6 15
11/21/2014 469.04 11681 -- 109451 -- 0 -2 -- 6 12
11/22/2014 469.05 11687 -- 108956 -- 0 4 -- 8 14
11/23/2014 469.04 11681 -- 108462 -96781 0 -2 -- 7 15
11/24/2014 469.04 11681 0 107967 -96286 0 1 -- 5 17
11/25/2014 469.03 11676 -5 107473 -95797 0 -1 -- 4 19
11/26/2014 469.02 11671 -5 106978 -95307 0 -1 -- 5 21
11/27/2014 469.02 11671 0 106484 -94813 0 1 -- 6 22
11/28/2014 469.02 11671 0 105989 -94318 0 2 -- 6 24
11/29/2014 469.01 11666 -5 105495 -93829 0 -1 -- 7 22
11/30/2014 469.00 11660 -6 105000 -93340 0 -1 -- 9 18
12/01/2014 469.01 11666 6 105000 -93334 0 5 -- 9 24
12/02/2014 469.02 11671 5 105000 -93329 0 3 -- 10 16
12/03/2014 469.03 11676 5 105000 -93324 0 4 -- 15 21
12/04/2014 469.03 11676 0 105000 -93324 0 1 -- 11 19
12/05/2014 469.02 11671 -5 105000 -93329 0 -1 -- 11 19
12/06/2014 469.03 11676 5 105000 -93324 0 4 -- 10 22
12/07/2014 469.03 11676 0 105000 -93324 0 1 -- 8 20
12/08/2014 469.03 11676 0 105000 -93324 0 1 -- 6 20
12/09/2014 469.02 11671 -5 105000 -93329 0 -2 -- 6 17
12/10/2014 469.01 11666 -5 105000 -93334 0 -2 -- 8 16
12/11/2014 469.03 11676 10 105000 -93324 0 7 -- 11 18
12/12/2014 469.16 11744 68 105000 -93256 0 35 -- 9 11
12/13/2014 469.16 11744 0 105000 -93256 0 1 -- 6 12
12/14/2014 469.16 11744 0 105000 -93256 0 1 -- 4 13
12/15/2014 469.19 11760 16 105000 -93240 0 9 -- 5 14
12/16/2014 469.21 11771 11 105000 -93229 -- -- -- -- --
12/17/2014 -- -- -- -- -- -- -- -- -- --

Later | Latest

Warning! This data is preliminary and subject to revision.

Show BUC Map | Plot BUC Data | 1 Month BUC Data | Real-Time BUC Data | BUC Info